sensor_id;sensor_type;location;lat;lon;timestamp;P1;durP1;ratioP1;P2;durP2;ratioP2
19675;SDS011;39539;52.202;9.876;2022-08-27T00:00:49;11.20;;;9.38;;
19675;SDS011;39539;52.202;9.876;2022-08-27T00:03:14;11.38;;;8.65;;
19675;SDS011;39539;52.202;9.876;2022-08-27T00:05:40;9.85;;;9.02;;
19675;SDS011;39539;52.202;9.876;2022-08-27T00:08:06;11.00;;;8.90;;
19675;SDS011;39539;52.202;9.876;2022-08-27T00:10:33;10.32;;;8.63;;
19675;SDS011;39539;52.202;9.876;2022-08-27T00:13:00;10.98;;;8.75;;
19675;SDS011;39539;52.202;9.876;2022-08-27T00:15:26;9.07;;;8.10;;
19675;SDS011;39539;52.202;9.876;2022-08-27T00:17:52;10.05;;;8.88;;
19675;SDS011;39539;52.202;9.876;2022-08-27T00:20:19;13.05;;;8.55;;
19675;SDS011;39539;52.202;9.876;2022-08-27T00:22:46;13.38;;;9.65;;
19675;SDS011;39539;52.202;9.876;2022-08-27T00:25:11;12.15;;;8.77;;
19675;SDS011;39539;52.202;9.876;2022-08-27T00:27:37;10.57;;;8.43;;
19675;SDS011;39539;52.202;9.876;2022-08-27T00:30:04;10.13;;;9.05;;
19675;SDS011;39539;52.202;9.876;2022-08-27T00:32:30;9.77;;;8.82;;
19675;SDS011;39539;52.202;9.876;2022-08-27T00:34:56;11.32;;;9.82;;
19675;SDS011;39539;52.202;9.876;2022-08-27T00:37:21;9.88;;;8.88;;
19675;SDS011;39539;52.202;9.876;2022-08-27T00:39:47;10.23;;;7.93;;
19675;SDS011;39539;52.202;9.876;2022-08-27T00:42:12;8.98;;;8.07;;
19675;SDS011;39539;52.202;9.876;2022-08-27T00:44:37;9.98;;;7.70;;
19675;SDS011;39539;52.202;9.876;2022-08-27T00:47:04;9.65;;;7.95;;
19675;SDS011;39539;52.202;9.876;2022-08-27T00:49:46;9.23;;;8.35;;
19675;SDS011;39539;52.202;9.876;2022-08-27T00:55:04;10.23;;;7.85;;
19675;SDS011;39539;52.202;9.876;2022-08-27T00:57:33;14.00;;;8.02;;
19675;SDS011;39539;52.202;9.876;2022-08-27T01:00:03;9.55;;;7.38;;
19675;SDS011;39539;52.202;9.876;2022-08-27T01:02:31;10.38;;;7.85;;
19675;SDS011;39539;52.202;9.876;2022-08-27T01:04:58;9.32;;;7.22;;
19675;SDS011;39539;52.202;9.876;2022-08-27T01:07:25;8.93;;;6.85;;
19675;SDS011;39539;52.202;9.876;2022-08-27T01:09:54;12.38;;;7.45;;
19675;SDS011;39539;52.202;9.876;2022-08-27T01:12:23;12.13;;;7.18;;
19675;SDS011;39539;52.202;9.876;2022-08-27T01:14:49;12.60;;;6.97;;
19675;SDS011;39539;52.202;9.876;2022-08-27T01:17:15;8.80;;;6.95;;
19675;SDS011;39539;52.202;9.876;2022-08-27T01:19:42;11.57;;;7.13;;
19675;SDS011;39539;52.202;9.876;2022-08-27T01:24:48;12.38;;;6.97;;
19675;SDS011;39539;52.202;9.876;2022-08-27T01:27:24;9.80;;;7.40;;
19675;SDS011;39539;52.202;9.876;2022-08-27T01:29:51;12.07;;;7.40;;
19675;SDS011;39539;52.202;9.876;2022-08-27T01:32:18;9.73;;;7.13;;
19675;SDS011;39539;52.202;9.876;2022-08-27T01:34:47;12.45;;;6.95;;
19675;SDS011;39539;52.202;9.876;2022-08-27T01:37:12;8.02;;;6.78;;
19675;SDS011;39539;52.202;9.876;2022-08-27T01:39:39;11.77;;;7.07;;
19675;SDS011;39539;52.202;9.876;2022-08-27T01:42:07;10.77;;;6.88;;
19675;SDS011;39539;52.202;9.876;2022-08-27T01:44:48;9.00;;;6.90;;
19675;SDS011;39539;52.202;9.876;2022-08-27T01:47:22;11.25;;;6.28;;
19675;SDS011;39539;52.202;9.876;2022-08-27T01:49:51;7.28;;;6.57;;
19675;SDS011;39539;52.202;9.876;2022-08-27T01:52:18;11.25;;;7.80;;
19675;SDS011;39539;52.202;9.876;2022-08-27T01:54:45;8.50;;;6.57;;
19675;SDS011;39539;52.202;9.876;2022-08-27T01:57:12;7.55;;;6.80;;
19675;SDS011;39539;52.202;9.876;2022-08-27T01:59:38;10.30;;;7.57;;
19675;SDS011;39539;52.202;9.876;2022-08-27T02:02:04;7.95;;;6.88;;
19675;SDS011;39539;52.202;9.876;2022-08-27T02:04:30;10.52;;;7.07;;
19675;SDS011;39539;52.202;9.876;2022-08-27T02:06:56;12.18;;;6.93;;
19675;SDS011;39539;52.202;9.876;2022-08-27T02:09:22;11.07;;;7.60;;
19675;SDS011;39539;52.202;9.876;2022-08-27T02:11:49;7.72;;;7.03;;
19675;SDS011;39539;52.202;9.876;2022-08-27T02:14:15;10.18;;;7.88;;
19675;SDS011;39539;52.202;9.876;2022-08-27T02:16:41;10.52;;;7.70;;
19675;SDS011;39539;52.202;9.876;2022-08-27T02:19:06;10.98;;;8.77;;
19675;SDS011;39539;52.202;9.876;2022-08-27T02:21:32;10.02;;;8.10;;
19675;SDS011;39539;52.202;9.876;2022-08-27T02:23:58;10.68;;;7.72;;
19675;SDS011;39539;52.202;9.876;2022-08-27T02:26:24;9.70;;;7.90;;
19675;SDS011;39539;52.202;9.876;2022-08-27T02:28:50;11.10;;;8.33;;
19675;SDS011;39539;52.202;9.876;2022-08-27T02:31:16;12.32;;;9.32;;
19675;SDS011;39539;52.202;9.876;2022-08-27T02:33:42;11.65;;;9.40;;
19675;SDS011;39539;52.202;9.876;2022-08-27T02:36:08;11.63;;;10.40;;
19675;SDS011;39539;52.202;9.876;2022-08-27T02:38:33;11.05;;;9.95;;
19675;SDS011;39539;52.202;9.876;2022-08-27T02:40:59;10.77;;;9.73;;
19675;SDS011;39539;52.202;9.876;2022-08-27T02:43:24;11.05;;;9.43;;
19675;SDS011;39539;52.202;9.876;2022-08-27T02:45:50;10.85;;;9.68;;
19675;SDS011;39539;52.202;9.876;2022-08-27T02:48:15;11.32;;;9.82;;
19675;SDS011;39539;52.202;9.876;2022-08-27T02:50:41;11.40;;;9.48;;
19675;SDS011;39539;52.202;9.876;2022-08-27T02:53:08;13.00;;;9.07;;
19675;SDS011;39539;52.202;9.876;2022-08-27T02:55:34;17.15;;;12.93;;
19675;SDS011;39539;52.202;9.876;2022-08-27T02:58:00;16.95;;;15.23;;
19675;SDS011;39539;52.202;9.876;2022-08-27T03:00:26;16.20;;;14.70;;
19675;SDS011;39539;52.202;9.876;2022-08-27T03:02:52;14.70;;;13.30;;
19675;SDS011;39539;52.202;9.876;2022-08-27T03:05:18;14.55;;;13.25;;
19675;SDS011;39539;52.202;9.876;2022-08-27T03:07:44;14.77;;;13.02;;
19675;SDS011;39539;52.202;9.876;2022-08-27T03:10:11;12.88;;;11.35;;
19675;SDS011;39539;52.202;9.876;2022-08-27T03:12:39;12.13;;;10.93;;
19675;SDS011;39539;52.202;9.876;2022-08-27T03:15:09;12.90;;;11.65;;
19675;SDS011;39539;52.202;9.876;2022-08-27T03:17:35;13.15;;;11.70;;
19675;SDS011;39539;52.202;9.876;2022-08-27T03:20:20;14.32;;;12.02;;
19675;SDS011;39539;52.202;9.876;2022-08-27T03:22:46;13.45;;;12.32;;
19675;SDS011;39539;52.202;9.876;2022-08-27T03:25:12;14.57;;;13.07;;
19675;SDS011;39539;52.202;9.876;2022-08-27T03:27:38;13.40;;;12.23;;
19675;SDS011;39539;52.202;9.876;2022-08-27T03:30:04;13.52;;;12.32;;
19675;SDS011;39539;52.202;9.876;2022-08-27T03:32:31;14.88;;;12.23;;
19675;SDS011;39539;52.202;9.876;2022-08-27T03:34:57;12.95;;;11.38;;
19675;SDS011;39539;52.202;9.876;2022-08-27T03:37:23;13.57;;;11.90;;
19675;SDS011;39539;52.202;9.876;2022-08-27T03:39:49;15.20;;;13.60;;
19675;SDS011;39539;52.202;9.876;2022-08-27T03:42:14;13.60;;;12.15;;
19675;SDS011;39539;52.202;9.876;2022-08-27T03:44:40;13.43;;;11.40;;
19675;SDS011;39539;52.202;9.876;2022-08-27T03:47:05;17.23;;;12.13;;
19675;SDS011;39539;52.202;9.876;2022-08-27T03:49:30;13.98;;;11.57;;
19675;SDS011;39539;52.202;9.876;2022-08-27T03:51:56;12.85;;;11.65;;
19675;SDS011;39539;52.202;9.876;2022-08-27T03:54:22;14.00;;;11.80;;
19675;SDS011;39539;52.202;9.876;2022-08-27T03:56:49;12.68;;;11.30;;
19675;SDS011;39539;52.202;9.876;2022-08-27T03:59:14;11.43;;;10.23;;
19675;SDS011;39539;52.202;9.876;2022-08-27T04:01:40;11.63;;;10.45;;
19675;SDS011;39539;52.202;9.876;2022-08-27T04:04:05;11.88;;;10.68;;
19675;SDS011;39539;52.202;9.876;2022-08-27T04:06:32;11.57;;;10.40;;
19675;SDS011;39539;52.202;9.876;2022-08-27T04:08:59;10.20;;;9.20;;
19675;SDS011;39539;52.202;9.876;2022-08-27T04:11:24;10.48;;;9.48;;
19675;SDS011;39539;52.202;9.876;2022-08-27T04:13:50;10.48;;;8.95;;
19675;SDS011;39539;52.202;9.876;2022-08-27T04:16:15;10.95;;;9.10;;
19675;SDS011;39539;52.202;9.876;2022-08-27T04:18:41;10.25;;;8.93;;
19675;SDS011;39539;52.202;9.876;2022-08-27T04:21:10;11.15;;;8.93;;
19675;SDS011;39539;52.202;9.876;2022-08-27T04:23:38;9.65;;;8.65;;
19675;SDS011;39539;52.202;9.876;2022-08-27T04:26:05;9.43;;;8.50;;
19675;SDS011;39539;52.202;9.876;2022-08-27T04:28:31;9.52;;;8.52;;
19675;SDS011;39539;52.202;9.876;2022-08-27T04:30:56;10.85;;;8.52;;
19675;SDS011;39539;52.202;9.876;2022-08-27T04:33:22;8.68;;;7.32;;
19675;SDS011;39539;52.202;9.876;2022-08-27T04:35:55;8.95;;;6.85;;
19675;SDS011;39539;52.202;9.876;2022-08-27T04:38:21;9.43;;;7.18;;
19675;SDS011;39539;52.202;9.876;2022-08-27T04:40:48;9.50;;;7.75;;
19675;SDS011;39539;52.202;9.876;2022-08-27T04:43:32;9.23;;;6.88;;
19675;SDS011;39539;52.202;9.876;2022-08-27T04:45:57;9.63;;;5.90;;
19675;SDS011;39539;52.202;9.876;2022-08-27T04:48:22;6.88;;;6.18;;
19675;SDS011;39539;52.202;9.876;2022-08-27T04:50:49;7.28;;;5.78;;
19675;SDS011;39539;52.202;9.876;2022-08-27T04:53:15;9.60;;;5.50;;
19675;SDS011;39539;52.202;9.876;2022-08-27T04:55:42;7.35;;;5.70;;
19675;SDS011;39539;52.202;9.876;2022-08-27T04:58:09;8.75;;;5.20;;
19675;SDS011;39539;52.202;9.876;2022-08-27T05:00:39;8.95;;;5.05;;
19675;SDS011;39539;52.202;9.876;2022-08-27T05:03:08;8.93;;;4.95;;
19675;SDS011;39539;52.202;9.876;2022-08-27T05:05:34;14.68;;;5.63;;
19675;SDS011;39539;52.202;9.876;2022-08-27T05:07:59;7.45;;;5.28;;
19675;SDS011;39539;52.202;9.876;2022-08-27T05:10:25;7.25;;;4.55;;
19675;SDS011;39539;52.202;9.876;2022-08-27T05:12:50;6.20;;;4.80;;
19675;SDS011;39539;52.202;9.876;2022-08-27T05:15:15;8.68;;;4.47;;
19675;SDS011;39539;52.202;9.876;2022-08-27T05:17:41;6.15;;;4.47;;
19675;SDS011;39539;52.202;9.876;2022-08-27T05:20:08;5.82;;;4.32;;
19675;SDS011;39539;52.202;9.876;2022-08-27T05:22:34;5.95;;;4.18;;
19675;SDS011;39539;52.202;9.876;2022-08-27T05:25:00;8.27;;;4.70;;
19675;SDS011;39539;52.202;9.876;2022-08-27T05:27:25;6.25;;;4.65;;
19675;SDS011;39539;52.202;9.876;2022-08-27T05:29:51;7.47;;;4.65;;
19675;SDS011;39539;52.202;9.876;2022-08-27T05:32:16;7.15;;;4.15;;
19675;SDS011;39539;52.202;9.876;2022-08-27T05:34:41;7.00;;;5.05;;
19675;SDS011;39539;52.202;9.876;2022-08-27T05:37:07;6.38;;;4.57;;
19675;SDS011;39539;52.202;9.876;2022-08-27T05:39:33;7.00;;;4.90;;
19675;SDS011;39539;52.202;9.876;2022-08-27T05:41:58;7.07;;;4.95;;
19675;SDS011;39539;52.202;9.876;2022-08-27T05:44:23;7.55;;;5.30;;
19675;SDS011;39539;52.202;9.876;2022-08-27T05:46:49;7.25;;;4.90;;
19675;SDS011;39539;52.202;9.876;2022-08-27T05:49:14;9.70;;;5.45;;
19675;SDS011;39539;52.202;9.876;2022-08-27T05:51:40;9.82;;;5.72;;
19675;SDS011;39539;52.202;9.876;2022-08-27T05:54:09;8.07;;;5.85;;
19675;SDS011;39539;52.202;9.876;2022-08-27T05:56:41;6.90;;;5.72;;
19675;SDS011;39539;52.202;9.876;2022-08-27T05:59:07;7.20;;;5.97;;
19675;SDS011;39539;52.202;9.876;2022-08-27T06:01:52;9.15;;;6.20;;
19675;SDS011;39539;52.202;9.876;2022-08-27T06:04:20;10.40;;;6.25;;
19675;SDS011;39539;52.202;9.876;2022-08-27T06:06:47;8.23;;;5.65;;
19675;SDS011;39539;52.202;9.876;2022-08-27T06:09:15;7.90;;;6.53;;
19675;SDS011;39539;52.202;9.876;2022-08-27T06:11:42;9.85;;;5.85;;
19675;SDS011;39539;52.202;9.876;2022-08-27T06:14:08;8.10;;;5.60;;
19675;SDS011;39539;52.202;9.876;2022-08-27T06:16:35;12.07;;;6.30;;
19675;SDS011;39539;52.202;9.876;2022-08-27T06:19:02;8.95;;;5.97;;
19675;SDS011;39539;52.202;9.876;2022-08-27T06:21:28;9.77;;;6.45;;
19675;SDS011;39539;52.202;9.876;2022-08-27T06:23:53;9.50;;;6.13;;
19675;SDS011;39539;52.202;9.876;2022-08-27T06:26:19;10.43;;;5.88;;
19675;SDS011;39539;52.202;9.876;2022-08-27T06:28:46;9.63;;;6.20;;
19675;SDS011;39539;52.202;9.876;2022-08-27T06:33:41;11.70;;;7.77;;
19675;SDS011;39539;52.202;9.876;2022-08-27T06:36:08;9.98;;;6.38;;
19675;SDS011;39539;52.202;9.876;2022-08-27T06:38:36;12.38;;;6.15;;
19675;SDS011;39539;52.202;9.876;2022-08-27T06:41:03;9.00;;;5.90;;
19675;SDS011;39539;52.202;9.876;2022-08-27T06:43:29;8.68;;;5.78;;
19675;SDS011;39539;52.202;9.876;2022-08-27T06:45:55;10.68;;;5.78;;
19675;SDS011;39539;52.202;9.876;2022-08-27T06:48:20;8.07;;;5.25;;
19675;SDS011;39539;52.202;9.876;2022-08-27T06:50:46;7.93;;;4.22;;
19675;SDS011;39539;52.202;9.876;2022-08-27T06:53:12;7.18;;;4.43;;
19675;SDS011;39539;52.202;9.876;2022-08-27T06:55:46;6.10;;;4.28;;
19675;SDS011;39539;52.202;9.876;2022-08-27T06:58:13;8.23;;;4.05;;
19675;SDS011;39539;52.202;9.876;2022-08-27T07:00:40;8.57;;;4.15;;
19675;SDS011;39539;52.202;9.876;2022-08-27T07:03:06;7.00;;;3.63;;
19675;SDS011;39539;52.202;9.876;2022-08-27T07:05:33;7.45;;;3.80;;
19675;SDS011;39539;52.202;9.876;2022-08-27T07:08:00;5.53;;;3.38;;
19675;SDS011;39539;52.202;9.876;2022-08-27T07:10:27;4.63;;;3.13;;
19675;SDS011;39539;52.202;9.876;2022-08-27T07:12:53;6.45;;;3.85;;
19675;SDS011;39539;52.202;9.876;2022-08-27T07:15:19;7.50;;;3.97;;
19675;SDS011;39539;52.202;9.876;2022-08-27T07:17:44;9.48;;;3.70;;
19675;SDS011;39539;52.202;9.876;2022-08-27T07:20:10;6.60;;;3.17;;
19675;SDS011;39539;52.202;9.876;2022-08-27T07:22:43;6.05;;;3.42;;
19675;SDS011;39539;52.202;9.876;2022-08-27T07:25:10;4.18;;;2.92;;
19675;SDS011;39539;52.202;9.876;2022-08-27T07:27:39;5.03;;;3.30;;
19675;SDS011;39539;52.202;9.876;2022-08-27T07:30:06;7.55;;;3.60;;
19675;SDS011;39539;52.202;9.876;2022-08-27T07:32:35;5.53;;;3.13;;
19675;SDS011;39539;52.202;9.876;2022-08-27T07:35:00;4.88;;;2.97;;
19675;SDS011;39539;52.202;9.876;2022-08-27T07:37:27;4.65;;;3.00;;
19675;SDS011;39539;52.202;9.876;2022-08-27T07:39:52;5.78;;;2.80;;
19675;SDS011;39539;52.202;9.876;2022-08-27T07:42:17;4.63;;;2.63;;
19675;SDS011;39539;52.202;9.876;2022-08-27T07:45:01;5.32;;;2.67;;
19675;SDS011;39539;52.202;9.876;2022-08-27T07:47:27;6.30;;;2.90;;
19675;SDS011;39539;52.202;9.876;2022-08-27T07:49:52;6.07;;;2.78;;
19675;SDS011;39539;52.202;9.876;2022-08-27T07:52:18;5.57;;;2.75;;
19675;SDS011;39539;52.202;9.876;2022-08-27T07:54:43;4.35;;;2.75;;
19675;SDS011;39539;52.202;9.876;2022-08-27T07:57:09;5.32;;;2.42;;
19675;SDS011;39539;52.202;9.876;2022-08-27T07:59:35;5.68;;;2.97;;
19675;SDS011;39539;52.202;9.876;2022-08-27T08:02:00;8.50;;;2.80;;
19675;SDS011;39539;52.202;9.876;2022-08-27T08:04:26;6.13;;;2.80;;
19675;SDS011;39539;52.202;9.876;2022-08-27T08:06:52;5.13;;;2.58;;
19675;SDS011;39539;52.202;9.876;2022-08-27T08:09:18;4.72;;;2.65;;
19675;SDS011;39539;52.202;9.876;2022-08-27T08:11:46;5.70;;;2.80;;
19675;SDS011;39539;52.202;9.876;2022-08-27T08:14:11;4.05;;;3.22;;
19675;SDS011;39539;52.202;9.876;2022-08-27T08:16:36;5.75;;;2.80;;
19675;SDS011;39539;52.202;9.876;2022-08-27T08:19:02;5.07;;;2.70;;
19675;SDS011;39539;52.202;9.876;2022-08-27T08:21:28;5.28;;;3.28;;
19675;SDS011;39539;52.202;9.876;2022-08-27T08:23:54;4.15;;;2.83;;
19675;SDS011;39539;52.202;9.876;2022-08-27T08:26:19;9.00;;;3.13;;
19675;SDS011;39539;52.202;9.876;2022-08-27T08:28:44;5.45;;;2.90;;
19675;SDS011;39539;52.202;9.876;2022-08-27T08:31:10;5.40;;;2.78;;
19675;SDS011;39539;52.202;9.876;2022-08-27T08:33:36;5.20;;;2.60;;
19675;SDS011;39539;52.202;9.876;2022-08-27T08:36:06;5.40;;;2.80;;
19675;SDS011;39539;52.202;9.876;2022-08-27T08:38:35;4.18;;;2.83;;
19675;SDS011;39539;52.202;9.876;2022-08-27T08:41:01;5.65;;;3.08;;
19675;SDS011;39539;52.202;9.876;2022-08-27T08:43:46;6.25;;;2.75;;
19675;SDS011;39539;52.202;9.876;2022-08-27T08:49:00;5.25;;;2.95;;
19675;SDS011;39539;52.202;9.876;2022-08-27T08:51:32;4.63;;;2.78;;
19675;SDS011;39539;52.202;9.876;2022-08-27T08:54:05;5.10;;;3.40;;
19675;SDS011;39539;52.202;9.876;2022-08-27T08:59:37;4.75;;;2.83;;
19675;SDS011;39539;52.202;9.876;2022-08-27T09:02:09;6.75;;;3.10;;
19675;SDS011;39539;52.202;9.876;2022-08-27T09:04:38;6.88;;;3.20;;
19675;SDS011;39539;52.202;9.876;2022-08-27T09:09:45;4.97;;;3.30;;
19675;SDS011;39539;52.202;9.876;2022-08-27T09:12:17;5.22;;;3.13;;
19675;SDS011;39539;52.202;9.876;2022-08-27T09:15:04;7.00;;;3.40;;
19675;SDS011;39539;52.202;9.876;2022-08-27T09:17:38;8.68;;;3.80;;
19675;SDS011;39539;52.202;9.876;2022-08-27T09:20:04;5.03;;;3.10;;
19675;SDS011;39539;52.202;9.876;2022-08-27T09:27:47;6.38;;;3.60;;
19675;SDS011;39539;52.202;9.876;2022-08-27T09:30:19;4.30;;;2.70;;
19675;SDS011;39539;52.202;9.876;2022-08-27T09:32:52;4.78;;;3.50;;
19675;SDS011;39539;52.202;9.876;2022-08-27T09:35:22;4.32;;;2.78;;
19675;SDS011;39539;52.202;9.876;2022-08-27T09:37:51;5.15;;;2.72;;
19675;SDS011;39539;52.202;9.876;2022-08-27T09:40:29;5.97;;;2.95;;
19675;SDS011;39539;52.202;9.876;2022-08-27T09:42:58;6.50;;;3.15;;
19675;SDS011;39539;52.202;9.876;2022-08-27T09:45:48;5.35;;;3.40;;
19675;SDS011;39539;52.202;9.876;2022-08-27T09:48:19;6.85;;;3.25;;
19675;SDS011;39539;52.202;9.876;2022-08-27T09:50:53;7.35;;;3.25;;
19675;SDS011;39539;52.202;9.876;2022-08-27T09:56:08;4.70;;;3.28;;
19675;SDS011;39539;52.202;9.876;2022-08-27T09:58:51;6.75;;;3.40;;
19675;SDS011;39539;52.202;9.876;2022-08-27T10:01:22;5.10;;;3.60;;
19675;SDS011;39539;52.202;9.876;2022-08-27T10:04:13;7.10;;;3.40;;
19675;SDS011;39539;52.202;9.876;2022-08-27T10:06:43;6.05;;;3.33;;
19675;SDS011;39539;52.202;9.876;2022-08-27T10:11:49;4.95;;;3.42;;
19675;SDS011;39539;52.202;9.876;2022-08-27T10:14:57;4.72;;;3.40;;
19675;SDS011;39539;52.202;9.876;2022-08-27T10:17:44;6.25;;;3.10;;
19675;SDS011;39539;52.202;9.876;2022-08-27T10:28:17;7.10;;;3.25;;
19675;SDS011;39539;52.202;9.876;2022-08-27T10:33:34;5.55;;;3.13;;
19675;SDS011;39539;52.202;9.876;2022-08-27T10:39:00;5.85;;;3.47;;
19675;SDS011;39539;52.202;9.876;2022-08-27T10:41:39;6.07;;;3.20;;
19675;SDS011;39539;52.202;9.876;2022-08-27T10:47:19;5.65;;;3.13;;
19675;SDS011;39539;52.202;9.876;2022-08-27T10:55:19;5.35;;;3.13;;
19675;SDS011;39539;52.202;9.876;2022-08-27T11:03:49;5.75;;;3.50;;
19675;SDS011;39539;52.202;9.876;2022-08-27T11:06:29;6.28;;;3.70;;
19675;SDS011;39539;52.202;9.876;2022-08-27T11:11:56;4.85;;;3.05;;
19675;SDS011;39539;52.202;9.876;2022-08-27T11:17:00;4.07;;;3.50;;
19675;SDS011;39539;52.202;9.876;2022-08-27T11:22:28;7.00;;;3.17;;
19675;SDS011;39539;52.202;9.876;2022-08-27T11:27:44;5.82;;;3.20;;
19675;SDS011;39539;52.202;9.876;2022-08-27T11:36:12;6.05;;;2.80;;
19675;SDS011;39539;52.202;9.876;2022-08-27T11:38:53;3.05;;;1.98;;
19675;SDS011;39539;52.202;9.876;2022-08-27T11:44:09;3.42;;;2.35;;
19675;SDS011;39539;52.202;9.876;2022-08-27T11:46:42;4.40;;;2.85;;
19675;SDS011;39539;52.202;9.876;2022-08-27T11:49:09;6.15;;;4.13;;
19675;SDS011;39539;52.202;9.876;2022-08-27T11:51:37;3.97;;;3.08;;
19675;SDS011;39539;52.202;9.876;2022-08-27T11:54:05;4.72;;;3.00;;
19675;SDS011;39539;52.202;9.876;2022-08-27T11:56:35;3.33;;;1.88;;
19675;SDS011;39539;52.202;9.876;2022-08-27T12:01:55;3.58;;;2.38;;
19675;SDS011;39539;52.202;9.876;2022-08-27T12:07:00;4.40;;;2.45;;
19675;SDS011;39539;52.202;9.876;2022-08-27T12:12:41;5.43;;;2.58;;
19675;SDS011;39539;52.202;9.876;2022-08-27T12:18:37;4.45;;;2.47;;
19675;SDS011;39539;52.202;9.876;2022-08-27T12:24:03;4.30;;;2.28;;
19675;SDS011;39539;52.202;9.876;2022-08-27T12:26:34;4.28;;;2.33;;
19675;SDS011;39539;52.202;9.876;2022-08-27T12:34:46;5.53;;;2.35;;
19675;SDS011;39539;52.202;9.876;2022-08-27T12:37:49;4.28;;;2.40;;
19675;SDS011;39539;52.202;9.876;2022-08-27T12:40:20;3.20;;;2.33;;
19675;SDS011;39539;52.202;9.876;2022-08-27T12:42:48;3.45;;;2.40;;
19675;SDS011;39539;52.202;9.876;2022-08-27T12:45:22;5.43;;;2.53;;
19675;SDS011;39539;52.202;9.876;2022-08-27T12:47:49;5.05;;;3.00;;
19675;SDS011;39539;52.202;9.876;2022-08-27T12:50:20;3.60;;;2.58;;
19675;SDS011;39539;52.202;9.876;2022-08-27T12:57:59;5.50;;;3.03;;
19675;SDS011;39539;52.202;9.876;2022-08-27T13:00:34;4.28;;;2.60;;
19675;SDS011;39539;52.202;9.876;2022-08-27T13:03:28;4.63;;;2.78;;
19675;SDS011;39539;52.202;9.876;2022-08-27T13:05:58;5.05;;;3.05;;
19675;SDS011;39539;52.202;9.876;2022-08-27T13:08:32;2.90;;;2.70;;
19675;SDS011;39539;52.202;9.876;2022-08-27T13:12:01;4.97;;;2.90;;
19675;SDS011;39539;52.202;9.876;2022-08-27T13:14:05;5.80;;;2.83;;
19675;SDS011;39539;52.202;9.876;2022-08-27T13:16:36;3.60;;;2.58;;
19675;SDS011;39539;52.202;9.876;2022-08-27T13:19:03;4.63;;;2.80;;
19675;SDS011;39539;52.202;9.876;2022-08-27T13:21:31;5.03;;;3.00;;
19675;SDS011;39539;52.202;9.876;2022-08-27T13:23:58;2.88;;;2.53;;
19675;SDS011;39539;52.202;9.876;2022-08-27T13:26:26;4.85;;;2.85;;
19675;SDS011;39539;52.202;9.876;2022-08-27T13:28:56;3.50;;;2.63;;
19675;SDS011;39539;52.202;9.876;2022-08-27T13:31:22;5.18;;;2.95;;
19675;SDS011;39539;52.202;9.876;2022-08-27T13:33:49;5.15;;;3.15;;
19675;SDS011;39539;52.202;9.876;2022-08-27T13:36:25;5.20;;;3.10;;
19675;SDS011;39539;52.202;9.876;2022-08-27T13:38:51;6.28;;;3.05;;
19675;SDS011;39539;52.202;9.876;2022-08-27T13:44:34;4.47;;;2.92;;
19675;SDS011;39539;52.202;9.876;2022-08-27T13:47:03;7.00;;;3.42;;
19675;SDS011;39539;52.202;9.876;2022-08-27T13:49:34;6.03;;;3.30;;
19675;SDS011;39539;52.202;9.876;2022-08-27T13:54:41;3.45;;;2.85;;
19675;SDS011;39539;52.202;9.876;2022-08-27T13:57:09;5.07;;;2.65;;
19675;SDS011;39539;52.202;9.876;2022-08-27T13:59:38;5.35;;;2.97;;
19675;SDS011;39539;52.202;9.876;2022-08-27T14:09:49;4.20;;;3.50;;
19675;SDS011;39539;52.202;9.876;2022-08-27T14:12:28;5.00;;;3.67;;
19675;SDS011;39539;52.202;9.876;2022-08-27T14:14:58;4.78;;;3.90;;
19675;SDS011;39539;52.202;9.876;2022-08-27T14:17:36;5.95;;;3.85;;
19675;SDS011;39539;52.202;9.876;2022-08-27T14:20:03;8.10;;;3.78;;
19675;SDS011;39539;52.202;9.876;2022-08-27T14:22:30;5.13;;;3.85;;
19675;SDS011;39539;52.202;9.876;2022-08-27T14:24:58;6.20;;;3.83;;
19675;SDS011;39539;52.202;9.876;2022-08-27T14:27:23;3.95;;;3.55;;
19675;SDS011;39539;52.202;9.876;2022-08-27T14:29:49;6.72;;;4.50;;
19675;SDS011;39539;52.202;9.876;2022-08-27T14:32:15;7.40;;;4.25;;
19675;SDS011;39539;52.202;9.876;2022-08-27T14:34:44;6.00;;;3.45;;
19675;SDS011;39539;52.202;9.876;2022-08-27T14:37:11;4.88;;;3.80;;
19675;SDS011;39539;52.202;9.876;2022-08-27T14:39:38;6.15;;;3.80;;
19675;SDS011;39539;52.202;9.876;2022-08-27T14:42:05;5.88;;;3.40;;
19675;SDS011;39539;52.202;9.876;2022-08-27T14:44:31;5.75;;;3.97;;
19675;SDS011;39539;52.202;9.876;2022-08-27T14:46:57;6.32;;;4.45;;
19675;SDS011;39539;52.202;9.876;2022-08-27T14:49:29;7.20;;;4.45;;
19675;SDS011;39539;52.202;9.876;2022-08-27T14:51:58;7.53;;;4.47;;
19675;SDS011;39539;52.202;9.876;2022-08-27T14:54:23;5.10;;;4.60;;
19675;SDS011;39539;52.202;9.876;2022-08-27T14:56:49;5.97;;;4.28;;
19675;SDS011;39539;52.202;9.876;2022-08-27T14:59:14;8.27;;;3.85;;
19675;SDS011;39539;52.202;9.876;2022-08-27T15:01:41;6.97;;;4.82;;
19675;SDS011;39539;52.202;9.876;2022-08-27T15:04:06;8.05;;;4.15;;
19675;SDS011;39539;52.202;9.876;2022-08-27T15:06:32;5.78;;;3.78;;
19675;SDS011;39539;52.202;9.876;2022-08-27T15:08:58;5.47;;;3.55;;
19675;SDS011;39539;52.202;9.876;2022-08-27T15:11:24;4.95;;;3.53;;
19675;SDS011;39539;52.202;9.876;2022-08-27T15:13:53;9.85;;;4.10;;
19675;SDS011;39539;52.202;9.876;2022-08-27T15:16:30;8.20;;;3.55;;
19675;SDS011;39539;52.202;9.876;2022-08-27T15:18:58;5.22;;;3.38;;
19675;SDS011;39539;52.202;9.876;2022-08-27T15:21:24;8.70;;;3.22;;
19675;SDS011;39539;52.202;9.876;2022-08-27T15:23:52;5.80;;;3.03;;
19675;SDS011;39539;52.202;9.876;2022-08-27T15:26:22;4.70;;;2.80;;
19675;SDS011;39539;52.202;9.876;2022-08-27T15:28:47;5.90;;;2.90;;
19675;SDS011;39539;52.202;9.876;2022-08-27T15:31:13;6.80;;;2.75;;
19675;SDS011;39539;52.202;9.876;2022-08-27T15:33:38;7.15;;;2.95;;
19675;SDS011;39539;52.202;9.876;2022-08-27T15:36:04;4.32;;;2.65;;
19675;SDS011;39539;52.202;9.876;2022-08-27T15:38:31;5.68;;;2.72;;
19675;SDS011;39539;52.202;9.876;2022-08-27T15:40:56;5.85;;;2.70;;
19675;SDS011;39539;52.202;9.876;2022-08-27T15:43:21;5.68;;;2.50;;
19675;SDS011;39539;52.202;9.876;2022-08-27T15:45:49;4.72;;;2.35;;
19675;SDS011;39539;52.202;9.876;2022-08-27T15:48:14;5.60;;;2.28;;
19675;SDS011;39539;52.202;9.876;2022-08-27T15:50:39;5.65;;;2.55;;
19675;SDS011;39539;52.202;9.876;2022-08-27T15:53:06;5.80;;;2.50;;
19675;SDS011;39539;52.202;9.876;2022-08-27T15:55:33;5.22;;;2.22;;
19675;SDS011;39539;52.202;9.876;2022-08-27T15:58:01;7.85;;;2.75;;
19675;SDS011;39539;52.202;9.876;2022-08-27T16:00:28;5.30;;;2.45;;
19675;SDS011;39539;52.202;9.876;2022-08-27T16:02:55;8.13;;;2.80;;
19675;SDS011;39539;52.202;9.876;2022-08-27T16:05:21;8.43;;;2.80;;
19675;SDS011;39539;52.202;9.876;2022-08-27T16:07:47;5.47;;;2.45;;
19675;SDS011;39539;52.202;9.876;2022-08-27T16:10:13;6.47;;;2.45;;
19675;SDS011;39539;52.202;9.876;2022-08-27T16:12:39;3.33;;;2.30;;
19675;SDS011;39539;52.202;9.876;2022-08-27T16:15:05;5.13;;;2.67;;
19675;SDS011;39539;52.202;9.876;2022-08-27T16:17:31;4.70;;;2.42;;
19675;SDS011;39539;52.202;9.876;2022-08-27T16:19:57;6.68;;;2.42;;
19675;SDS011;39539;52.202;9.876;2022-08-27T16:22:22;5.70;;;2.45;;
19675;SDS011;39539;52.202;9.876;2022-08-27T16:24:48;4.78;;;2.53;;
19675;SDS011;39539;52.202;9.876;2022-08-27T16:27:13;5.45;;;2.60;;
19675;SDS011;39539;52.202;9.876;2022-08-27T16:29:39;4.22;;;2.63;;
19675;SDS011;39539;52.202;9.876;2022-08-27T16:32:04;3.90;;;2.28;;
19675;SDS011;39539;52.202;9.876;2022-08-27T16:34:31;6.55;;;2.50;;
19675;SDS011;39539;52.202;9.876;2022-08-27T16:36:56;6.95;;;2.80;;
19675;SDS011;39539;52.202;9.876;2022-08-27T16:39:23;5.97;;;2.50;;
19675;SDS011;39539;52.202;9.876;2022-08-27T16:41:48;3.83;;;2.20;;
19675;SDS011;39539;52.202;9.876;2022-08-27T16:44:14;6.00;;;2.15;;